createdAt,value
2022-10-09T00:01:05.667Z,11.89
2022-10-09T00:03:32.976Z,11.76
2022-10-09T00:05:59.548Z,11.75
2022-10-09T00:08:26.538Z,11.78
2022-10-09T00:10:53.163Z,11.77
2022-10-09T00:13:20.365Z,11.76
2022-10-09T00:15:47.838Z,11.75
2022-10-09T00:18:16.975Z,11.73
2022-10-09T00:20:45.376Z,11.71
2022-10-09T00:23:17.494Z,11.70
2022-10-09T00:25:59.958Z,11.69
2022-10-09T00:28:28.957Z,11.67
2022-10-09T00:30:55.704Z,11.63
2022-10-09T00:33:22.547Z,11.62
2022-10-09T00:35:49.710Z,11.59
2022-10-09T00:38:16.975Z,11.59
2022-10-09T00:40:44.053Z,11.57
2022-10-09T00:43:19.847Z,11.51
2022-10-09T00:45:54.161Z,11.50
2022-10-09T00:48:21.639Z,11.45
2022-10-09T00:50:57.950Z,11.47
2022-10-09T00:53:27.851Z,11.42
2022-10-09T00:55:54.712Z,11.42
2022-10-09T00:58:22.987Z,11.41
2022-10-09T01:00:49.751Z,11.40
2022-10-09T01:03:16.387Z,11.37
2022-10-09T01:06:16.974Z,11.36
2022-10-09T01:09:02.813Z,11.30
2022-10-09T01:11:42.395Z,11.27
2022-10-09T01:14:50.811Z,11.25
2022-10-09T01:17:56.401Z,11.22
2022-10-09T01:20:46.671Z,11.15
2022-10-09T01:23:42.137Z,11.14
2022-10-09T01:26:20.435Z,11.11
2022-10-09T01:28:52.592Z,11.12
2022-10-09T01:31:20.950Z,11.09
2022-10-09T01:33:48.455Z,11.09
2022-10-09T01:36:16.540Z,11.07
2022-10-09T01:38:44.984Z,11.04
2022-10-09T01:41:11.567Z,11.01
2022-10-09T01:43:38.200Z,10.92
2022-10-09T01:46:29.662Z,10.96
2022-10-09T01:49:18.266Z,10.93
2022-10-09T01:51:59.826Z,10.91
2022-10-09T01:54:55.922Z,10.79
2022-10-09T01:57:29.423Z,10.78
2022-10-09T01:59:59.586Z,10.78
2022-10-09T02:02:27.314Z,10.77
2022-10-09T02:04:54.087Z,10.77
2022-10-09T02:07:23.056Z,10.77
2022-10-09T02:09:50.017Z,10.47
2022-10-09T02:12:19.188Z,10.59
2022-10-09T02:14:45.907Z,10.67
2022-10-09T02:17:24.617Z,10.66
2022-10-09T02:19:56.518Z,10.64
2022-10-09T02:22:29.826Z,10.64
2022-10-09T02:25:01.954Z,10.64
2022-10-09T02:27:29.379Z,10.62
2022-10-09T02:29:56.727Z,10.60
2022-10-09T02:32:23.897Z,10.57
2022-10-09T02:34:53.215Z,10.55
2022-10-09T02:37:19.743Z,10.54
2022-10-09T02:39:46.293Z,10.52
2022-10-09T02:42:12.875Z,10.49
2022-10-09T02:44:39.504Z,10.52
2022-10-09T02:47:06.069Z,10.49
2022-10-09T02:49:32.642Z,10.49
2022-10-09T02:51:59.247Z,10.50
2022-10-09T02:54:25.793Z,10.46
2022-10-09T02:56:52.418Z,10.44
2022-10-09T02:59:20.159Z,10.44
2022-10-09T03:01:46.785Z,10.41
2022-10-09T03:04:13.500Z,10.40
2022-10-09T03:06:40.125Z,10.39
2022-10-09T03:09:06.648Z,10.40
2022-10-09T03:11:33.545Z,10.34
2022-10-09T03:14:00.080Z,10.34
2022-10-09T03:16:29.514Z,10.35
2022-10-09T03:18:56.246Z,10.34
2022-10-09T03:21:27.352Z,10.33
2022-10-09T03:23:54.834Z,10.32
2022-10-09T03:26:24.350Z,10.31
2022-10-09T03:28:52.873Z,10.28
2022-10-09T03:31:50.060Z,10.28
2022-10-09T03:34:08.442Z,10.25
2022-10-09T03:36:35.044Z,10.24
2022-10-09T03:39:01.550Z,10.24
2022-10-09T03:41:28.132Z,10.23
2022-10-09T03:43:54.626Z,10.23
2022-10-09T03:46:21.187Z,10.21
2022-10-09T03:48:47.736Z,10.18
2022-10-09T03:51:14.238Z,10.18
2022-10-09T03:53:40.771Z,10.17
2022-10-09T03:56:07.571Z,10.16
2022-10-09T03:58:34.084Z,10.14
2022-10-09T04:01:00.785Z,10.14
2022-10-09T04:03:27.609Z,10.13
2022-10-09T04:05:54.134Z,10.04
2022-10-09T04:08:20.709Z,9.96
2022-10-09T04:10:47.246Z,10.03
2022-10-09T04:13:13.951Z,10.05
2022-10-09T04:15:40.469Z,10.06
2022-10-09T04:18:07.022Z,10.05
2022-10-09T04:20:33.633Z,10.04
2022-10-09T04:23:00.542Z,10.03
2022-10-09T04:25:27.776Z,9.99
2022-10-09T04:27:54.335Z,10.00
2022-10-09T04:30:20.947Z,9.98
2022-10-09T04:32:48.648Z,9.95
2022-10-09T04:35:16.778Z,9.96
2022-10-09T04:37:43.694Z,9.93
2022-10-09T04:40:10.355Z,9.89
2022-10-09T04:42:37.016Z,9.88
2022-10-09T04:45:03.966Z,9.83
2022-10-09T04:47:31.052Z,9.79
2022-10-09T04:49:57.557Z,9.77
2022-10-09T04:52:24.086Z,9.80
2022-10-09T04:54:50.602Z,9.75
2022-10-09T04:57:17.183Z,9.72
2022-10-09T04:59:43.732Z,9.72
2022-10-09T05:02:10.340Z,9.70
2022-10-09T05:04:36.935Z,9.71
2022-10-09T05:07:03.577Z,9.67
2022-10-09T05:09:30.138Z,9.61
2022-10-09T05:11:56.760Z,9.64
2022-10-09T05:14:23.359Z,9.63
2022-10-09T05:17:12.493Z,9.62
2022-10-09T05:19:39.472Z,9.57
2022-10-09T05:22:06.259Z,9.51
2022-10-09T05:24:32.775Z,9.54
2022-10-09T05:26:59.411Z,9.56
2022-10-09T05:29:26.063Z,9.57
2022-10-09T05:31:52.694Z,9.56
2022-10-09T05:34:19.389Z,9.54
2022-10-09T05:36:46.015Z,9.56
2022-10-09T05:39:12.561Z,9.57
2022-10-09T05:41:39.049Z,9.56
2022-10-09T05:44:05.620Z,9.57
2022-10-09T05:46:32.331Z,9.52
2022-10-09T05:49:05.607Z,9.54
2022-10-09T05:51:38.029Z,9.55
2022-10-09T05:54:06.019Z,9.55
2022-10-09T05:56:35.166Z,9.50
2022-10-09T05:59:07.434Z,9.46
2022-10-09T06:01:38.073Z,9.49
2022-10-09T06:04:06.356Z,9.47
2022-10-09T06:06:36.506Z,9.49
2022-10-09T06:09:04.074Z,9.45
2022-10-09T06:11:35.357Z,9.48
2022-10-09T06:14:03.717Z,9.46
2022-10-09T06:16:35.313Z,9.47
2022-10-09T06:19:02.694Z,9.40
2022-10-09T06:21:29.787Z,9.43
2022-10-09T06:23:58.423Z,9.38
2022-10-09T06:26:26.161Z,9.42
2022-10-09T06:28:52.990Z,9.34
2022-10-09T06:31:21.888Z,9.43
2022-10-09T06:33:49.839Z,9.37
2022-10-09T06:36:19.094Z,9.40
2022-10-09T06:38:45.999Z,9.44
2022-10-09T06:41:15.300Z,9.37
2022-10-09T06:43:42.652Z,9.42
2022-10-09T06:46:12.743Z,9.45
2022-10-09T06:48:40.768Z,9.46
2022-10-09T06:51:12.551Z,9.48
2022-10-09T06:53:41.588Z,9.43
2022-10-09T06:56:08.883Z,9.46
2022-10-09T06:58:35.519Z,9.48
2022-10-09T07:01:16.649Z,9.48
2022-10-09T07:03:45.590Z,9.46
2022-10-09T07:06:17.427Z,9.41
2022-10-09T07:08:46.340Z,9.46
2022-10-09T07:11:14.151Z,9.46
2022-10-09T07:13:42.106Z,9.41
2022-10-09T07:16:10.503Z,9.48
2022-10-09T07:18:37.338Z,9.48
2022-10-09T07:21:05.539Z,9.50
2022-10-09T07:23:33.326Z,9.48
2022-10-09T07:26:01.339Z,9.53
2022-10-09T07:28:29.836Z,9.55
2022-10-09T07:30:56.707Z,9.52
2022-10-09T07:33:23.306Z,9.48
2022-10-09T07:35:56.620Z,9.53
2022-10-09T07:38:24.509Z,9.57
2022-10-09T07:40:54.806Z,9.48
2022-10-09T07:43:21.848Z,9.57
2022-10-09T07:45:48.531Z,9.60
2022-10-09T07:48:15.280Z,9.55
2022-10-09T07:50:41.938Z,9.37
2022-10-09T07:53:08.851Z,9.50
2022-10-09T07:55:36.315Z,9.60
2022-10-09T07:58:03.045Z,9.54
2022-10-09T08:00:33.265Z,9.66
2022-10-09T08:02:59.967Z,9.64
2022-10-09T08:05:26.498Z,9.70
2022-10-09T08:07:52.993Z,9.76
2022-10-09T08:10:19.777Z,9.80
2022-10-09T08:12:46.869Z,9.83
2022-10-09T08:15:13.694Z,9.82
2022-10-09T08:17:40.272Z,9.82
2022-10-09T08:20:07.352Z,9.83
2022-10-09T08:22:34.014Z,9.85
2022-10-09T08:25:00.666Z,9.82
2022-10-09T08:27:27.185Z,9.82
2022-10-09T08:29:53.674Z,9.90
2022-10-09T08:32:20.215Z,9.92
2022-10-09T08:34:47.499Z,9.98
2022-10-09T08:37:14.185Z,10.00
2022-10-09T08:39:40.702Z,10.00
2022-10-09T08:42:07.245Z,10.04
2022-10-09T08:44:39.973Z,10.15
2022-10-09T08:47:21.396Z,10.09
2022-10-09T08:49:59.082Z,10.20
2022-10-09T08:52:35.619Z,10.27
2022-10-09T08:55:24.231Z,10.21
2022-10-09T08:57:54.975Z,10.23
2022-10-09T09:00:28.309Z,10.29
2022-10-09T09:03:06.441Z,10.33
2022-10-09T09:05:33.043Z,10.28
2022-10-09T09:08:29.652Z,10.42
2022-10-09T09:11:21.578Z,10.44
2022-10-09T09:13:57.470Z,10.29
2022-10-09T09:16:51.560Z,10.43
2022-10-09T09:19:53.560Z,10.52
2022-10-09T09:22:21.417Z,10.48
2022-10-09T09:24:52.026Z,10.41
2022-10-09T09:27:22.565Z,10.59
2022-10-09T09:30:20.644Z,10.71
2022-10-09T09:32:59.305Z,10.73
2022-10-09T09:35:30.069Z,10.79
2022-10-09T09:37:56.685Z,10.79
2022-10-09T09:40:38.263Z,10.78
2022-10-09T09:43:17.688Z,10.80
2022-10-09T09:45:45.601Z,10.89
2022-10-09T09:48:25.702Z,11.00
2022-10-09T09:51:16.193Z,11.07
2022-10-09T09:53:49.157Z,10.97
2022-10-09T09:56:17.192Z,11.07
2022-10-09T09:58:49.434Z,10.98
2022-10-09T10:01:31.163Z,11.02
2022-10-09T10:04:00.166Z,11.10
2022-10-09T10:06:43.621Z,11.21
2022-10-09T10:09:14.826Z,11.25
2022-10-09T10:12:03.615Z,11.27
2022-10-09T10:14:31.349Z,11.39
2022-10-09T10:16:59.941Z,11.42
2022-10-09T10:19:34.897Z,11.50
2022-10-09T10:22:04.321Z,11.45
2022-10-09T10:24:33.896Z,11.49
2022-10-09T10:27:05.897Z,11.61
2022-10-09T10:29:38.052Z,11.60
2022-10-09T10:32:32.757Z,11.71
2022-10-09T10:35:05.594Z,11.78
2022-10-09T10:37:53.536Z,11.73
2022-10-09T10:40:36.520Z,11.85
2022-10-09T10:43:40.626Z,11.84
2022-10-09T10:46:22.099Z,11.86
2022-10-09T10:48:50.024Z,11.81
2022-10-09T10:51:49.538Z,11.98
2022-10-09T10:54:36.315Z,11.97
2022-10-09T10:57:11.937Z,12.05
2022-10-09T10:59:57.047Z,11.99
2022-10-09T11:02:42.395Z,12.05
2022-10-09T11:05:18.675Z,12.12
2022-10-09T11:07:50.428Z,12.09
2022-10-09T11:10:27.145Z,12.20
2022-10-09T11:13:00.109Z,12.08
2022-10-09T11:15:37.336Z,12.11
2022-10-09T11:18:33.270Z,12.27
2022-10-09T11:21:18.385Z,12.35
2022-10-09T11:24:00.234Z,12.39
2022-10-09T11:26:53.605Z,12.43
2022-10-09T11:29:33.097Z,12.44
2022-10-09T11:32:11.021Z,12.46
2022-10-09T11:34:43.589Z,12.45
2022-10-09T11:37:17.937Z,12.52
2022-10-09T11:39:45.758Z,12.41
2022-10-09T11:42:20.447Z,12.49
2022-10-09T11:45:14.260Z,12.64
2022-10-09T11:47:55.498Z,12.68
2022-10-09T11:50:42.365Z,12.75
2022-10-09T11:53:10.641Z,12.79
2022-10-09T11:55:37.780Z,12.71
2022-10-09T11:58:15.375Z,12.80
2022-10-09T12:00:42.882Z,12.81
2022-10-09T12:03:26.549Z,12.82
2022-10-09T12:06:04.141Z,12.78
2022-10-09T12:08:30.775Z,12.83
2022-10-09T12:11:00.465Z,12.86
2022-10-09T12:13:39.346Z,12.79
2022-10-09T12:16:07.653Z,12.93
2022-10-09T12:18:44.840Z,12.95
2022-10-09T12:21:28.538Z,12.99
2022-10-09T12:23:55.388Z,13.05
2022-10-09T12:26:24.922Z,13.02
2022-10-09T12:28:55.018Z,13.01
2022-10-09T12:31:25.828Z,12.96
2022-10-09T12:33:57.077Z,13.06
2022-10-09T12:36:26.902Z,12.97
2022-10-09T12:38:53.665Z,12.93
2022-10-09T12:41:29.481Z,13.00
2022-10-09T12:43:57.659Z,12.93
2022-10-09T12:46:33.452Z,12.97
2022-10-09T12:49:03.158Z,12.85
2022-10-09T12:51:31.783Z,13.01
2022-10-09T12:53:58.383Z,12.96
2022-10-09T12:56:31.389Z,13.07
2022-10-09T12:58:59.214Z,13.03
2022-10-09T13:01:26.440Z,13.00
2022-10-09T13:04:03.397Z,13.09
2022-10-09T13:06:53.147Z,13.13
2022-10-09T13:09:25.627Z,13.22
2022-10-09T13:12:16.957Z,13.19
2022-10-09T13:14:57.961Z,13.11
2022-10-09T13:17:33.188Z,12.99
2022-10-09T13:20:15.512Z,13.13
2022-10-09T13:22:56.796Z,13.05
2022-10-09T13:25:25.393Z,13.11
2022-10-09T13:27:52.481Z,13.19
2022-10-09T13:30:19.743Z,13.04
2022-10-09T13:32:46.342Z,13.02
2022-10-09T13:35:12.911Z,13.09
2022-10-09T13:37:39.931Z,13.20
2022-10-09T13:40:07.181Z,13.17
2022-10-09T13:42:37.253Z,13.25
2022-10-09T13:45:05.155Z,13.16
2022-10-09T13:47:31.919Z,13.23
2022-10-09T13:49:58.625Z,13.04
2022-10-09T13:52:25.292Z,13.17
2022-10-09T13:54:52.045Z,13.03
2022-10-09T13:57:18.803Z,13.21
2022-10-09T13:59:45.580Z,13.21
2022-10-09T14:02:12.578Z,13.24
2022-10-09T14:04:39.291Z,13.26
2022-10-09T14:07:05.943Z,13.17
2022-10-09T14:09:32.449Z,13.28
2022-10-09T14:11:58.984Z,13.28
2022-10-09T14:14:25.578Z,13.35
2022-10-09T14:16:52.097Z,13.36
2022-10-09T14:19:18.739Z,13.30
2022-10-09T14:21:46.895Z,13.18
2022-10-09T14:24:14.457Z,12.99
2022-10-09T14:26:41.315Z,12.98
2022-10-09T14:29:09.139Z,12.86
2022-10-09T14:31:35.666Z,13.06
2022-10-09T14:34:02.211Z,13.20
2022-10-09T14:36:29.365Z,13.81
2022-10-09T14:38:56.050Z,14.52
2022-10-09T14:41:22.930Z,14.06
2022-10-09T14:43:56.676Z,13.75
2022-10-09T14:46:23.493Z,13.61
2022-10-09T14:48:50.104Z,13.50
2022-10-09T14:51:19.479Z,13.49
2022-10-09T14:53:46.856Z,13.53
2022-10-09T14:56:19.335Z,13.99
2022-10-09T14:58:46.126Z,14.60
2022-10-09T15:01:15.038Z,14.57
2022-10-09T15:03:44.927Z,14.14
2022-10-09T15:06:12.516Z,14.00
2022-10-09T15:08:41.471Z,13.93
2022-10-09T15:11:09.555Z,13.65
2022-10-09T15:13:36.863Z,13.68
2022-10-09T15:16:10.930Z,13.74
2022-10-09T15:18:37.738Z,13.75
2022-10-09T15:21:04.698Z,13.75
2022-10-09T15:23:31.599Z,13.76
2022-10-09T15:26:00.696Z,13.74
2022-10-09T15:28:27.593Z,13.73
2022-10-09T15:30:57.755Z,13.65
2022-10-09T15:33:24.989Z,13.59
2022-10-09T15:35:52.870Z,13.64
2022-10-09T15:38:22.395Z,13.69
2022-10-09T15:40:53.834Z,13.57
2022-10-09T15:43:23.166Z,13.60
2022-10-09T15:45:49.953Z,13.58
2022-10-09T15:48:17.966Z,13.60
2022-10-09T15:50:46.561Z,13.41
2022-10-09T15:53:14.991Z,13.52
2022-10-09T15:55:44.068Z,13.45
2022-10-09T15:58:10.977Z,13.51
2022-10-09T16:00:39.626Z,13.44
2022-10-09T16:03:07.611Z,13.47
2022-10-09T16:05:47.009Z,13.50
2022-10-09T16:08:13.626Z,13.50
2022-10-09T16:10:49.004Z,13.40
2022-10-09T16:13:16.796Z,13.46
2022-10-09T16:15:45.018Z,13.44
2022-10-09T16:18:11.931Z,13.46
2022-10-09T16:20:39.765Z,13.42
2022-10-09T16:23:08.055Z,13.41
2022-10-09T16:25:35.384Z,13.40
2022-10-09T16:28:02.036Z,13.40
2022-10-09T16:30:28.858Z,13.41
2022-10-09T16:32:55.520Z,13.40
2022-10-09T16:35:22.863Z,13.38
2022-10-09T16:37:52.131Z,13.39
2022-10-09T16:40:18.856Z,13.38
2022-10-09T16:42:45.549Z,13.38
2022-10-09T16:45:12.145Z,13.37
2022-10-09T16:47:40.518Z,13.36
2022-10-09T16:50:07.757Z,13.36
2022-10-09T16:52:34.280Z,13.35
2022-10-09T16:55:00.978Z,13.35
2022-10-09T16:57:27.535Z,13.34
2022-10-09T16:59:54.038Z,13.34
2022-10-09T17:02:20.581Z,13.30
2022-10-09T17:04:47.242Z,13.30
2022-10-09T17:07:13.920Z,13.04
2022-10-09T17:09:40.624Z,13.11
2022-10-09T17:12:09.738Z,13.17
2022-10-09T17:14:37.842Z,13.19
2022-10-09T17:17:06.432Z,13.17
2022-10-09T17:19:33.338Z,13.17
2022-10-09T17:22:00.832Z,13.17
2022-10-09T17:24:28.296Z,13.06
2022-10-09T17:26:58.442Z,13.10
2022-10-09T17:29:25.252Z,12.98
2022-10-09T17:31:51.817Z,13.02
2022-10-09T17:34:18.599Z,13.00
2022-10-09T17:36:45.692Z,13.03
2022-10-09T17:39:15.382Z,13.01
2022-10-09T17:41:45.536Z,13.04
2022-10-09T17:44:12.803Z,12.96
2022-10-09T17:46:39.417Z,13.00
2022-10-09T17:49:06.039Z,12.99
2022-10-09T17:51:35.881Z,12.98
2022-10-09T17:54:07.026Z,12.99
2022-10-09T17:56:36.346Z,12.98
2022-10-09T17:59:03.938Z,12.95
2022-10-09T18:01:31.152Z,12.95
2022-10-09T18:03:58.441Z,12.96
2022-10-09T18:06:25.637Z,12.97
2022-10-09T18:08:57.279Z,12.98
2022-10-09T18:11:25.253Z,12.96
2022-10-09T18:13:52.361Z,12.96
2022-10-09T18:16:32.691Z,12.98
2022-10-09T18:19:15.067Z,12.97
2022-10-09T18:21:45.438Z,12.95
2022-10-09T18:24:13.174Z,12.95
2022-10-09T18:26:39.952Z,12.94
2022-10-09T18:29:06.944Z,12.95
2022-10-09T18:31:34.123Z,12.95
2022-10-09T18:34:00.919Z,12.93
2022-10-09T18:36:34.466Z,12.94
2022-10-09T18:39:07.119Z,12.92
2022-10-09T18:41:33.856Z,12.90
2022-10-09T18:44:01.434Z,12.87
2022-10-09T18:46:41.577Z,12.88
2022-10-09T18:49:10.633Z,12.87
2022-10-09T18:51:39.292Z,12.88
2022-10-09T18:54:06.767Z,12.87
2022-10-09T18:56:34.961Z,12.85
2022-10-09T18:59:05.434Z,12.84
2022-10-09T19:01:32.158Z,12.80
2022-10-09T19:03:58.694Z,12.80
2022-10-09T19:06:25.267Z,12.81
2022-10-09T19:08:53.427Z,12.81
2022-10-09T19:11:20.023Z,12.81
2022-10-09T19:13:46.645Z,12.80
2022-10-09T19:16:13.390Z,12.81
2022-10-09T19:18:39.991Z,12.80
2022-10-09T19:21:06.965Z,12.79
2022-10-09T19:23:33.597Z,12.79
2022-10-09T19:26:00.639Z,12.79
2022-10-09T19:28:32.861Z,12.79
2022-10-09T19:31:02.602Z,12.79
2022-10-09T19:33:29.403Z,12.77
2022-10-09T19:35:56.493Z,12.77
2022-10-09T19:38:24.077Z,12.77
2022-10-09T19:40:50.808Z,12.73
2022-10-09T19:43:18.432Z,12.74
2022-10-09T19:45:48.703Z,12.73
2022-10-09T19:48:17.122Z,12.73
2022-10-09T19:50:45.705Z,12.72
2022-10-09T19:53:13.522Z,12.73
2022-10-09T19:55:40.082Z,12.68
2022-10-09T19:58:06.831Z,12.69
2022-10-09T20:00:33.376Z,12.69
2022-10-09T20:02:59.931Z,12.63
2022-10-09T20:05:26.699Z,12.70
2022-10-09T20:07:53.248Z,12.68
2022-10-09T20:10:19.878Z,12.64
2022-10-09T20:12:46.464Z,12.64
2022-10-09T20:15:13.105Z,12.65
2022-10-09T20:17:39.639Z,12.67
2022-10-09T20:20:06.660Z,12.67
2022-10-09T20:22:33.175Z,12.65
2022-10-09T20:24:59.701Z,12.65
2022-10-09T20:27:26.211Z,12.63
2022-10-09T20:29:53.707Z,12.64
2022-10-09T20:32:20.684Z,12.53
2022-10-09T20:34:47.269Z,12.60
2022-10-09T20:37:13.844Z,12.62
2022-10-09T20:39:40.398Z,12.61
2022-10-09T20:42:06.975Z,12.60
2022-10-09T20:44:33.541Z,12.60
2022-10-09T20:47:00.051Z,12.60
2022-10-09T20:49:26.780Z,12.60
2022-10-09T20:51:53.595Z,12.60
2022-10-09T20:54:21.786Z,12.60
2022-10-09T20:56:49.004Z,12.59
2022-10-09T20:59:16.792Z,12.58
2022-10-09T21:01:43.690Z,12.59
2022-10-09T21:04:11.647Z,12.58
2022-10-09T21:06:38.842Z,12.58
2022-10-09T21:09:05.511Z,12.58
2022-10-09T21:11:34.540Z,12.58
2022-10-09T21:14:02.152Z,12.57
2022-10-09T21:16:28.717Z,12.59
2022-10-09T21:19:01.030Z,12.59
2022-10-09T21:21:28.542Z,12.58
2022-10-09T21:23:56.506Z,12.56
2022-10-09T21:26:24.158Z,12.59
2022-10-09T21:28:55.438Z,12.57
2022-10-09T21:31:28.389Z,12.56
2022-10-09T21:33:55.315Z,12.55
2022-10-09T21:36:21.841Z,12.54
2022-10-09T21:38:48.322Z,12.55
2022-10-09T21:41:14.855Z,12.58
2022-10-09T21:43:41.329Z,12.56
2022-10-09T21:46:07.878Z,12.56
2022-10-09T21:48:34.388Z,12.54
2022-10-09T21:51:00.984Z,12.53
2022-10-09T21:53:27.496Z,12.52
2022-10-09T21:55:54.000Z,12.51
2022-10-09T21:58:20.609Z,12.52
2022-10-09T22:00:55.463Z,12.52
2022-10-09T22:03:24.297Z,12.49
2022-10-09T22:05:50.843Z,12.46
2022-10-09T22:08:17.387Z,12.47
2022-10-09T22:10:43.929Z,12.47
2022-10-09T22:13:10.439Z,12.47
2022-10-09T22:15:48.846Z,12.47
2022-10-09T22:18:17.565Z,12.45
2022-10-09T22:20:46.320Z,12.46
2022-10-09T22:23:13.961Z,12.46
2022-10-09T22:25:40.492Z,12.45
2022-10-09T22:28:07.426Z,12.45
2022-10-09T22:30:34.569Z,12.41
2022-10-09T22:33:01.113Z,12.43
2022-10-09T22:35:27.872Z,12.44
2022-10-09T22:37:54.437Z,12.41
2022-10-09T22:40:21.513Z,12.42
2022-10-09T22:42:48.349Z,12.42
2022-10-09T22:45:15.285Z,12.40
2022-10-09T22:47:41.788Z,12.33
2022-10-09T22:50:08.678Z,12.38
2022-10-09T22:52:35.307Z,12.38
2022-10-09T22:55:01.986Z,12.37
2022-10-09T22:57:28.532Z,12.37
2022-10-09T22:59:55.066Z,12.36
2022-10-09T23:02:21.603Z,12.36
2022-10-09T23:04:48.077Z,12.35
2022-10-09T23:07:15.142Z,12.35
2022-10-09T23:09:41.620Z,12.34
2022-10-09T23:12:08.138Z,12.33
2022-10-09T23:14:34.885Z,12.34
2022-10-09T23:17:01.439Z,12.34
2022-10-09T23:19:27.972Z,12.33
2022-10-09T23:21:54.522Z,12.30
2022-10-09T23:24:21.011Z,12.33
2022-10-09T23:26:50.989Z,12.32
2022-10-09T23:29:20.978Z,12.32
2022-10-09T23:31:48.603Z,12.31
2022-10-09T23:34:15.326Z,12.31
2022-10-09T23:36:42.155Z,12.32
2022-10-09T23:39:08.898Z,12.30
2022-10-09T23:41:35.623Z,12.30
2022-10-09T23:44:02.399Z,12.30
2022-10-09T23:46:32.913Z,12.28
2022-10-09T23:49:00.110Z,12.23
2022-10-09T23:51:27.917Z,12.25
2022-10-09T23:53:54.559Z,12.27
2022-10-09T23:56:27.527Z,12.28
2022-10-09T23:58:55.164Z,12.27
